createdAt,value
2023-05-13T00:01:21.111Z,6.67
2023-05-13T00:03:53.042Z,7.23
2023-05-13T00:06:24.866Z,7.77
2023-05-13T00:08:56.766Z,10.60
2023-05-13T00:11:28.549Z,8.93
2023-05-13T00:14:00.220Z,7.30
2023-05-13T00:16:32.124Z,7.40
2023-05-13T00:19:03.880Z,7.63
2023-05-13T00:21:35.816Z,8.80
2023-05-13T00:24:07.910Z,8.10
2023-05-13T00:26:39.596Z,8.07
2023-05-13T00:29:11.310Z,7.53
2023-05-13T00:31:43.095Z,7.33
2023-05-13T00:34:14.879Z,7.37
2023-05-13T00:36:46.766Z,8.37
2023-05-13T00:39:18.688Z,7.77
2023-05-13T00:41:50.363Z,7.93
2023-05-13T00:44:22.151Z,7.60
2023-05-13T00:46:54.280Z,9.07
2023-05-13T00:49:26.974Z,7.77
2023-05-13T00:51:58.719Z,7.20
2023-05-13T00:54:30.645Z,7.93
2023-05-13T00:57:02.398Z,8.87
2023-05-13T00:59:34.189Z,6.87
2023-05-13T01:02:24.019Z,7.13
2023-05-13T01:05:26.781Z,7.83
2023-05-13T01:08:17.442Z,7.03
2023-05-13T01:10:59.252Z,6.90
2023-05-13T01:13:36.927Z,7.30
2023-05-13T01:16:31.146Z,6.97
2023-05-13T01:19:18.649Z,7.70
2023-05-13T01:21:54.550Z,7.57
2023-05-13T01:24:26.291Z,7.50
2023-05-13T01:26:58.810Z,7.77
2023-05-13T01:29:30.750Z,7.33
2023-05-13T01:32:03.356Z,7.50
2023-05-13T01:34:35.939Z,7.37
2023-05-13T01:37:07.927Z,8.43
2023-05-13T01:39:40.195Z,7.33
2023-05-13T01:42:11.958Z,7.30
2023-05-13T01:44:43.698Z,8.10
2023-05-13T01:47:15.866Z,7.90
2023-05-13T01:49:47.603Z,7.53
2023-05-13T01:52:19.424Z,7.97
2023-05-13T01:54:51.274Z,6.70
2023-05-13T01:57:23.113Z,7.13
2023-05-13T01:59:54.891Z,7.55
2023-05-13T02:02:26.804Z,8.80
2023-05-13T02:04:58.590Z,7.50
2023-05-13T02:07:30.355Z,7.93
2023-05-13T02:10:02.068Z,6.90
2023-05-13T02:12:33.760Z,7.40
2023-05-13T02:15:06.053Z,7.43
2023-05-13T02:17:37.842Z,8.80
2023-05-13T02:20:10.299Z,8.27
2023-05-13T02:22:42.085Z,8.03
2023-05-13T02:25:13.745Z,7.77
2023-05-13T02:27:45.582Z,7.07
2023-05-13T02:30:17.746Z,8.43
2023-05-13T02:32:49.460Z,9.18
2023-05-13T02:35:22.387Z,11.07
2023-05-13T02:37:54.403Z,9.70
2023-05-13T02:40:26.104Z,11.00
2023-05-13T02:42:57.760Z,8.60
2023-05-13T02:45:29.474Z,9.07
2023-05-13T02:48:01.149Z,8.10
2023-05-13T02:50:33.178Z,7.53
2023-05-13T02:53:04.853Z,10.53
2023-05-13T02:55:36.575Z,7.07
2023-05-13T02:58:09.602Z,8.03
2023-05-13T03:00:41.397Z,8.33
2023-05-13T03:03:13.170Z,8.93
2023-05-13T03:05:44.912Z,7.73
2023-05-13T03:08:16.590Z,7.73
2023-05-13T03:10:48.270Z,7.40
2023-05-13T03:13:19.953Z,7.40
2023-05-13T03:15:51.691Z,7.60
2023-05-13T03:18:23.489Z,7.77
2023-05-13T03:20:55.412Z,8.00
2023-05-13T03:23:27.158Z,8.00
2023-05-13T03:25:58.936Z,7.87
2023-05-13T03:28:30.809Z,7.63
2023-05-13T03:31:02.662Z,9.93
2023-05-13T03:33:34.369Z,8.00
2023-05-13T03:36:07.015Z,6.90
2023-05-13T03:38:38.686Z,7.37
2023-05-13T03:41:10.467Z,7.70
2023-05-13T03:43:42.197Z,7.17
2023-05-13T03:46:13.947Z,7.77
2023-05-13T03:48:45.752Z,7.13
2023-05-13T03:51:17.521Z,7.03
2023-05-13T03:53:49.241Z,7.57
2023-05-13T03:56:21.608Z,8.37
2023-05-13T03:58:53.474Z,6.93
2023-05-13T04:01:25.295Z,8.07
2023-05-13T04:03:57.021Z,7.73
2023-05-13T04:06:28.740Z,7.20
2023-05-13T04:09:02.038Z,7.30
2023-05-13T04:11:33.720Z,7.00
2023-05-13T04:14:05.384Z,6.97
2023-05-13T04:16:37.108Z,7.00
2023-05-13T04:19:08.876Z,6.53
2023-05-13T04:21:40.709Z,6.17
2023-05-13T04:24:12.419Z,7.97
2023-05-13T04:26:44.098Z,6.40
2023-05-13T04:29:17.934Z,10.40
2023-05-13T04:31:49.644Z,6.83
2023-05-13T04:34:21.334Z,6.03
2023-05-13T04:36:53.111Z,5.73
2023-05-13T04:39:24.850Z,7.60
2023-05-13T04:41:56.574Z,6.83
2023-05-13T04:44:28.296Z,6.07
2023-05-13T04:46:59.978Z,6.10
2023-05-13T04:49:31.898Z,6.87
2023-05-13T04:52:05.084Z,14.67
2023-05-13T04:54:38.435Z,7.27
2023-05-13T04:57:10.223Z,6.70
2023-05-13T04:59:42.013Z,5.50
2023-05-13T05:02:13.672Z,7.50
2023-05-13T05:04:45.384Z,6.10
2023-05-13T05:07:17.281Z,5.80
2023-05-13T05:09:49.352Z,7.50
2023-05-13T05:12:21.044Z,6.07
2023-05-13T05:14:52.863Z,7.10
2023-05-13T05:17:24.690Z,5.90
2023-05-13T05:19:56.419Z,6.33
2023-05-13T05:22:28.322Z,5.93
2023-05-13T05:25:00.000Z,5.73
2023-05-13T05:27:31.742Z,5.97
2023-05-13T05:30:03.745Z,6.23
2023-05-13T05:32:35.696Z,6.13
2023-05-13T05:35:08.590Z,6.07
2023-05-13T05:37:40.299Z,7.00
2023-05-13T05:40:12.535Z,6.17
2023-05-13T05:45:53.237Z,6.83
2023-05-13T05:48:24.870Z,6.00
2023-05-13T05:50:56.799Z,11.07
2023-05-13T05:53:28.549Z,6.00
2023-05-13T05:56:00.229Z,5.73
2023-05-13T05:58:31.986Z,7.43
2023-05-13T06:01:03.771Z,5.90
2023-05-13T06:03:35.467Z,6.10
2023-05-13T06:06:07.325Z,8.43
2023-05-13T06:08:38.945Z,5.17
2023-05-13T06:11:10.685Z,6.33
2023-05-13T06:13:44.006Z,5.80
2023-05-13T06:16:15.820Z,7.80
2023-05-13T06:18:47.953Z,6.33
2023-05-13T06:21:19.801Z,5.80
2023-05-13T06:23:51.476Z,5.60
2023-05-13T06:26:23.317Z,6.03
2023-05-13T06:28:55.195Z,6.17
2023-05-13T06:31:27.095Z,6.37
2023-05-13T06:33:58.801Z,5.80
2023-05-13T06:36:30.513Z,8.20
2023-05-13T06:39:02.191Z,6.80
2023-05-13T06:41:34.412Z,6.83
2023-05-13T06:44:06.816Z,6.40
2023-05-13T06:46:38.679Z,6.77
2023-05-13T06:49:10.452Z,6.57
2023-05-13T06:51:42.397Z,6.00
2023-05-13T06:54:14.289Z,7.20
2023-05-13T06:56:46.056Z,8.93
2023-05-13T06:59:17.846Z,6.33
2023-05-13T07:01:49.574Z,6.43
2023-05-13T07:04:21.585Z,7.70
2023-05-13T07:06:54.656Z,7.17
2023-05-13T07:09:27.314Z,7.17
2023-05-13T07:11:58.984Z,6.93
2023-05-13T07:14:30.785Z,6.40
2023-05-13T07:17:03.548Z,6.10
2023-05-13T07:19:35.324Z,6.07
2023-05-13T07:22:07.065Z,7.37
2023-05-13T07:24:38.863Z,6.13
2023-05-13T07:27:10.528Z,7.10
2023-05-13T07:29:42.200Z,11.70
2023-05-13T07:32:14.096Z,7.00
2023-05-13T07:34:46.080Z,7.50
2023-05-13T07:37:17.815Z,7.93
2023-05-13T07:39:49.615Z,7.70
2023-05-13T07:42:21.390Z,10.60
2023-05-13T07:44:53.046Z,8.90
2023-05-13T07:47:25.075Z,8.20
2023-05-13T07:49:56.855Z,8.10
2023-05-13T07:52:28.628Z,7.03
2023-05-13T07:55:00.701Z,8.03
2023-05-13T07:57:32.481Z,7.37
2023-05-13T08:00:04.681Z,6.97
2023-05-13T08:02:39.874Z,8.00
2023-05-13T08:05:12.420Z,8.30
2023-05-13T08:07:44.268Z,10.13
2023-05-13T08:10:16.030Z,7.30
2023-05-13T08:12:52.196Z,7.07
2023-05-13T08:15:24.948Z,10.07
2023-05-13T08:17:56.760Z,10.70
2023-05-13T08:20:30.092Z,8.40
2023-05-13T08:23:02.161Z,8.77
2023-05-13T08:25:33.864Z,8.30
2023-05-13T08:28:05.587Z,9.30
2023-05-13T08:30:37.376Z,7.90
2023-05-13T08:33:09.209Z,8.93
2023-05-13T08:35:44.206Z,8.90
2023-05-13T08:38:16.549Z,9.00
2023-05-13T08:40:48.338Z,8.93
2023-05-13T08:43:20.481Z,8.37
2023-05-13T08:45:54.808Z,8.60
2023-05-13T08:48:26.804Z,8.00
2023-05-13T08:50:59.003Z,7.60
2023-05-13T08:53:31.796Z,9.50
2023-05-13T08:56:05.403Z,8.40
2023-05-13T08:58:37.310Z,8.50
2023-05-13T09:01:09.303Z,7.73
2023-05-13T09:04:02.334Z,7.17
2023-05-13T09:06:34.417Z,7.10
2023-05-13T09:09:06.468Z,8.27
2023-05-13T09:11:40.576Z,7.70
2023-05-13T09:14:14.358Z,6.68
2023-05-13T09:16:47.988Z,6.60
2023-05-13T09:19:19.872Z,7.53
2023-05-13T09:21:52.952Z,7.27
2023-05-13T09:24:24.685Z,7.30
2023-05-13T09:26:56.472Z,8.43
2023-05-13T09:29:31.285Z,8.70
2023-05-13T09:32:09.321Z,7.00
2023-05-13T09:34:47.351Z,7.63
2023-05-13T09:37:19.109Z,7.37
2023-05-13T09:39:52.797Z,8.23
2023-05-13T09:42:24.545Z,7.57
2023-05-13T09:44:56.382Z,7.70
2023-05-13T09:47:28.160Z,9.30
2023-05-13T09:50:03.674Z,6.77
2023-05-13T09:52:36.928Z,6.50
2023-05-13T09:55:09.697Z,7.17
2023-05-13T09:57:42.315Z,7.30
2023-05-13T10:00:24.869Z,7.30
2023-05-13T10:03:02.254Z,7.40
2023-05-13T10:05:34.837Z,7.73
2023-05-13T10:08:09.638Z,8.10
2023-05-13T10:10:42.345Z,7.57
2023-05-13T10:13:16.228Z,6.70
2023-05-13T10:15:52.520Z,7.10
2023-05-13T10:18:24.483Z,6.50
2023-05-13T10:20:56.872Z,6.30
2023-05-13T10:23:29.295Z,5.40
2023-05-13T10:26:01.889Z,5.60
2023-05-13T10:28:34.413Z,6.90
2023-05-13T10:31:06.167Z,5.87
2023-05-13T10:33:37.949Z,5.90
2023-05-13T10:36:31.665Z,5.67
2023-05-13T10:39:21.641Z,6.20
2023-05-13T10:42:21.207Z,6.00
2023-05-13T10:44:57.552Z,5.40
2023-05-13T10:47:33.250Z,5.23
2023-05-13T10:50:06.733Z,5.90
2023-05-13T10:52:43.914Z,5.93
2023-05-13T10:55:18.949Z,5.53
2023-05-13T10:58:11.967Z,5.17
2023-05-13T11:00:45.406Z,5.73
2023-05-13T11:03:20.434Z,5.23
2023-05-13T11:06:13.852Z,5.77
2023-05-13T11:08:47.729Z,5.27
2023-05-13T11:11:31.045Z,5.70
2023-05-13T11:14:14.363Z,5.00
2023-05-13T11:17:07.482Z,6.23
2023-05-13T11:19:46.746Z,5.57
2023-05-13T11:22:18.528Z,5.03
2023-05-13T11:25:07.591Z,5.20
2023-05-13T11:27:41.034Z,5.00
2023-05-13T11:30:24.203Z,6.30
2023-05-13T11:32:58.184Z,6.20
2023-05-13T11:35:33.189Z,5.30
2023-05-13T11:38:06.424Z,4.30
2023-05-13T11:40:39.101Z,5.17
2023-05-13T11:43:12.229Z,4.90
2023-05-13T11:45:45.370Z,4.63
2023-05-13T11:48:20.905Z,6.53
2023-05-13T11:50:53.003Z,6.03
2023-05-13T11:53:24.843Z,7.20
2023-05-13T11:55:57.361Z,5.80
2023-05-13T11:58:29.138Z,7.00
2023-05-13T12:01:09.560Z,6.57
2023-05-13T12:03:41.661Z,7.87
2023-05-13T12:06:13.919Z,6.33
2023-05-13T12:08:46.369Z,8.77
2023-05-13T12:11:18.212Z,7.90
2023-05-13T12:13:50.382Z,5.87
2023-05-13T12:16:22.550Z,7.20
2023-05-13T12:19:06.321Z,7.00
2023-05-13T12:21:38.782Z,6.67
2023-05-13T12:24:21.484Z,8.37
2023-05-13T12:26:54.451Z,7.13
2023-05-13T12:29:26.157Z,7.90
2023-05-13T12:32:06.084Z,8.20
2023-05-13T12:34:39.033Z,7.00
2023-05-13T12:37:12.699Z,7.07
2023-05-13T12:39:44.916Z,6.80
2023-05-13T12:42:18.270Z,6.70
2023-05-13T12:44:49.992Z,8.57
2023-05-13T12:47:23.146Z,7.07
2023-05-13T12:49:56.775Z,6.80
2023-05-13T12:52:28.517Z,6.53
2023-05-13T12:55:00.180Z,7.20
2023-05-13T12:57:32.449Z,7.27
2023-05-13T13:00:05.516Z,8.17
2023-05-13T13:02:39.889Z,6.47
2023-05-13T13:05:12.010Z,7.13
2023-05-13T13:07:43.751Z,6.53
2023-05-13T13:10:16.048Z,5.97
2023-05-13T13:12:47.918Z,6.60
2023-05-13T13:15:19.743Z,6.47
2023-05-13T13:17:51.581Z,6.80
2023-05-13T13:20:23.592Z,6.60
2023-05-13T13:22:55.535Z,6.77
2023-05-13T13:25:28.773Z,7.40
2023-05-13T13:28:00.856Z,6.27
2023-05-13T13:30:32.637Z,6.53
2023-05-13T13:33:04.571Z,6.60
2023-05-13T13:35:36.327Z,6.03
2023-05-13T13:38:08.353Z,7.20
2023-05-13T13:40:40.189Z,6.77
2023-05-13T13:43:11.897Z,6.20
2023-05-13T13:45:43.762Z,5.93
2023-05-13T13:48:15.668Z,5.17
2023-05-13T13:50:48.380Z,6.33
2023-05-13T13:53:21.785Z,6.17
2023-05-13T13:55:53.541Z,6.77
2023-05-13T13:58:25.421Z,6.43
2023-05-13T14:00:57.260Z,6.93
2023-05-13T14:03:29.233Z,6.33
2023-05-13T14:06:01.055Z,6.40
2023-05-13T14:08:32.801Z,6.40
2023-05-13T14:11:04.794Z,7.13
2023-05-13T14:13:36.501Z,7.10
2023-05-13T14:16:08.242Z,6.40
2023-05-13T14:18:40.144Z,7.10
2023-05-13T14:21:11.896Z,7.07
2023-05-13T14:23:43.726Z,8.33
2023-05-13T14:26:15.734Z,6.10
2023-05-13T14:28:47.476Z,7.30
2023-05-13T14:31:19.284Z,6.27
2023-05-13T14:33:51.044Z,7.13
2023-05-13T14:36:24.228Z,7.27
2023-05-13T14:38:55.940Z,6.60
2023-05-13T14:41:29.251Z,6.47
2023-05-13T14:44:01.552Z,6.13
2023-05-13T14:46:37.089Z,5.87
2023-05-13T14:49:08.896Z,6.63
2023-05-13T14:51:40.992Z,7.07
2023-05-13T14:54:12.794Z,6.00
2023-05-13T14:56:44.791Z,8.13
2023-05-13T14:59:16.788Z,6.33
2023-05-13T15:01:48.516Z,6.57
2023-05-13T15:04:20.318Z,8.30
2023-05-13T15:06:52.122Z,7.20
2023-05-13T15:09:23.816Z,7.20
2023-05-13T15:11:55.600Z,6.53
2023-05-13T15:14:28.305Z,7.40
2023-05-13T15:17:00.294Z,7.17
2023-05-13T15:19:32.091Z,8.07
2023-05-13T15:22:05.222Z,7.45
2023-05-13T15:24:40.768Z,7.80
2023-05-13T15:27:12.532Z,8.87
2023-05-13T15:29:44.282Z,7.43
2023-05-13T15:32:16.008Z,7.03
2023-05-13T15:34:47.746Z,8.60
2023-05-13T15:37:19.496Z,7.50
2023-05-13T15:39:51.187Z,7.40
2023-05-13T15:42:23.289Z,7.40
2023-05-13T15:44:55.014Z,8.00
2023-05-13T15:47:26.748Z,7.03
2023-05-13T15:49:59.262Z,7.73
2023-05-13T15:52:31.156Z,7.23
2023-05-13T15:55:03.362Z,8.77
2023-05-13T15:57:35.089Z,8.30
2023-05-13T16:00:07.723Z,8.37
2023-05-13T16:02:39.914Z,9.03
2023-05-13T16:05:12.201Z,9.20
2023-05-13T16:07:45.235Z,9.13
2023-05-13T16:10:17.570Z,8.83
2023-05-13T16:12:49.371Z,9.00
2023-05-13T16:15:21.100Z,10.03
2023-05-13T16:17:52.919Z,8.37
2023-05-13T16:20:25.046Z,8.97
2023-05-13T16:22:57.031Z,8.43
2023-05-13T16:25:28.760Z,8.40
2023-05-13T16:28:00.730Z,9.07
2023-05-13T16:30:32.739Z,9.50
2023-05-13T16:33:04.594Z,8.83
2023-05-13T16:35:36.988Z,10.83
2023-05-13T16:38:08.654Z,8.50
2023-05-13T16:40:40.389Z,9.57
2023-05-13T16:43:12.128Z,9.60
2023-05-13T16:45:43.991Z,9.53
2023-05-13T16:48:15.779Z,7.87
2023-05-13T16:50:47.797Z,10.00
2023-05-13T16:53:22.220Z,10.47
2023-05-13T16:55:54.004Z,9.03
2023-05-13T16:58:25.720Z,9.70
2023-05-13T17:00:59.175Z,9.13
2023-05-13T17:03:31.294Z,9.80
2023-05-13T17:06:03.236Z,9.43
2023-05-13T17:08:34.952Z,8.90
2023-05-13T17:11:06.772Z,8.83
2023-05-13T17:13:38.507Z,9.30
2023-05-13T17:16:11.006Z,9.70
2023-05-13T17:18:42.835Z,12.97
2023-05-13T17:21:14.603Z,8.23
2023-05-13T17:23:46.464Z,8.60
2023-05-13T17:26:20.248Z,7.90
2023-05-13T17:28:52.368Z,8.50
2023-05-13T17:31:25.667Z,9.07
2023-05-13T17:33:57.560Z,9.13
2023-05-13T17:36:29.365Z,8.35
2023-05-13T17:39:01.080Z,9.53
2023-05-13T17:41:32.776Z,9.70
2023-05-13T17:44:05.001Z,9.83
2023-05-13T17:46:37.222Z,8.40
2023-05-13T17:49:09.128Z,8.17
2023-05-13T17:51:42.000Z,10.97
2023-05-13T17:54:14.178Z,9.20
2023-05-13T17:56:45.897Z,8.67
2023-05-13T17:59:17.609Z,7.87
2023-05-13T18:01:49.400Z,8.20
2023-05-13T18:04:21.189Z,14.67
2023-05-13T18:06:52.967Z,8.87
2023-05-13T18:09:24.686Z,8.00
2023-05-13T18:11:56.516Z,9.27
2023-05-13T18:14:32.061Z,7.63
2023-05-13T18:17:04.252Z,8.30
2023-05-13T18:19:36.504Z,7.90
2023-05-13T18:22:11.645Z,8.37
2023-05-13T18:24:43.435Z,9.97
2023-05-13T18:27:15.368Z,8.32
2023-05-13T18:29:47.180Z,7.33
2023-05-13T18:32:18.898Z,7.87
2023-05-13T18:34:50.666Z,8.77
2023-05-13T18:37:22.460Z,7.67
2023-05-13T18:39:54.205Z,6.43
2023-05-13T18:42:26.224Z,7.90
2023-05-13T18:44:57.905Z,7.60
2023-05-13T18:47:29.674Z,9.90
2023-05-13T18:50:01.573Z,7.57
2023-05-13T18:52:33.363Z,7.77
2023-05-13T18:55:05.832Z,8.20
2023-05-13T18:57:37.561Z,8.60
2023-05-13T19:00:09.645Z,7.37
2023-05-13T19:02:41.539Z,7.70
2023-05-13T19:05:13.444Z,8.03
2023-05-13T19:07:45.278Z,6.27
2023-05-13T19:10:17.159Z,9.63
2023-05-13T19:12:48.943Z,8.23
2023-05-13T19:15:21.342Z,7.50
2023-05-13T19:17:53.301Z,7.70
2023-05-13T19:20:25.894Z,6.53
2023-05-13T19:22:57.621Z,7.50
2023-05-13T19:25:29.338Z,8.23
2023-05-13T19:28:02.244Z,7.83
2023-05-13T19:30:33.923Z,7.67
2023-05-13T19:33:06.020Z,10.30
2023-05-13T19:35:37.870Z,9.30
2023-05-13T19:38:09.640Z,8.53
2023-05-13T19:40:41.353Z,8.77
2023-05-13T19:43:13.123Z,10.40
2023-05-13T19:45:44.846Z,10.10
2023-05-13T19:48:16.710Z,9.98
2023-05-13T19:50:48.442Z,8.63
2023-05-13T19:53:21.888Z,10.47
2023-05-13T19:55:53.688Z,8.60
2023-05-13T19:58:25.494Z,9.00
2023-05-13T20:00:57.348Z,9.43
2023-05-13T20:03:29.149Z,8.80
2023-05-13T20:06:01.806Z,9.80
2023-05-13T20:08:33.744Z,8.10
2023-05-13T20:11:05.538Z,8.07
2023-05-13T20:13:37.366Z,8.30
2023-05-13T20:16:09.184Z,8.47
2023-05-13T20:18:41.165Z,7.60
2023-05-13T20:21:12.899Z,9.83
2023-05-13T20:23:44.589Z,10.20
2023-05-13T20:26:16.369Z,9.97
2023-05-13T20:28:48.714Z,9.57
2023-05-13T20:31:20.500Z,8.40
2023-05-13T20:33:52.223Z,9.53
2023-05-13T20:36:23.928Z,9.00
2023-05-13T20:38:55.772Z,11.67
2023-05-13T20:41:27.557Z,8.97
2023-05-13T20:43:59.273Z,8.30
2023-05-13T20:46:31.125Z,9.47
2023-05-13T20:49:02.898Z,8.63
2023-05-13T20:51:35.146Z,10.80
2023-05-13T20:54:14.074Z,14.10
2023-05-13T20:56:45.791Z,10.40
2023-05-13T20:59:17.480Z,9.33
2023-05-13T21:01:49.329Z,10.03
2023-05-13T21:04:21.457Z,10.30
2023-05-13T21:06:53.278Z,9.67
2023-05-13T21:09:25.026Z,10.07
2023-05-13T21:11:56.717Z,10.38
2023-05-13T21:14:28.389Z,11.43
2023-05-13T21:17:03.198Z,9.77
2023-05-13T21:19:34.990Z,13.97
2023-05-13T21:22:06.752Z,25.57
2023-05-13T21:24:38.447Z,25.43
2023-05-13T21:27:10.226Z,13.70
2023-05-13T21:29:41.977Z,14.32
2023-05-13T21:32:13.794Z,12.63
2023-05-13T21:34:45.496Z,10.27
2023-05-13T21:37:17.232Z,11.27
2023-05-13T21:39:48.997Z,10.60
2023-05-13T21:42:21.092Z,11.73
2023-05-13T21:44:52.800Z,14.70
2023-05-13T21:47:24.595Z,15.97
2023-05-13T21:49:56.457Z,13.50
2023-05-13T21:52:28.256Z,13.77
2023-05-13T21:54:59.988Z,12.53
2023-05-13T21:57:31.989Z,12.70
2023-05-13T22:00:07.348Z,13.40
2023-05-13T22:02:39.103Z,15.40
2023-05-13T22:05:11.178Z,14.00
2023-05-13T22:07:42.969Z,11.37
2023-05-13T22:10:14.691Z,11.70
2023-05-13T22:12:48.083Z,12.33
2023-05-13T22:15:19.790Z,11.93
2023-05-13T22:17:52.085Z,12.23
2023-05-13T22:20:24.308Z,11.87
2023-05-13T22:22:56.414Z,12.63
2023-05-13T22:25:28.162Z,12.10
2023-05-13T22:27:59.968Z,12.67
2023-05-13T22:30:31.892Z,11.97
2023-05-13T22:33:03.729Z,11.80
2023-05-13T22:35:36.474Z,11.70
2023-05-13T22:38:08.446Z,11.73
2023-05-13T22:40:40.148Z,11.90
2023-05-13T22:43:11.898Z,11.13
2023-05-13T22:45:43.680Z,11.37
2023-05-13T22:48:15.573Z,13.43
2023-05-13T22:50:47.455Z,11.03
2023-05-13T22:53:19.398Z,10.63
2023-05-13T22:55:51.700Z,11.17
2023-05-13T22:58:23.434Z,15.40
2023-05-13T23:00:55.229Z,11.10
2023-05-13T23:03:26.960Z,11.43
2023-05-13T23:05:58.711Z,9.90
2023-05-13T23:08:30.386Z,10.90
2023-05-13T23:11:02.127Z,10.17
2023-05-13T23:13:33.890Z,10.90
2023-05-13T23:16:05.937Z,9.87
2023-05-13T23:18:37.739Z,11.10
2023-05-13T23:21:09.947Z,9.93
2023-05-13T23:23:41.678Z,8.57
2023-05-13T23:26:13.490Z,10.60
2023-05-13T23:28:45.292Z,9.53
2023-05-13T23:31:17.137Z,9.37
2023-05-13T23:33:48.957Z,9.10
2023-05-13T23:36:20.684Z,9.63
2023-05-13T23:38:52.479Z,9.47
2023-05-13T23:41:24.320Z,9.10
2023-05-13T23:43:56.102Z,10.80
2023-05-13T23:46:27.873Z,10.03
2023-05-13T23:48:59.846Z,9.73
2023-05-13T23:51:32.016Z,11.37
2023-05-13T23:54:03.953Z,9.40
2023-05-13T23:56:35.800Z,11.80
2023-05-13T23:59:08.553Z,9.20
